Terminal Aerodrome Forecast
Issued by NWS Albany, NY

Home | Current Version | Previous Version | Text Only | Print | Product List | Glossary On
Versions: 1 2 3 4 5 6 7 8 9 10 11 12 13 14 15 16 17
000
FTUS41 KALY 071720
TAFPOU
TAF
KPOU 071720Z 0718/0818 22004KT P6SM SCT008 OVC018
     FM072100 22003KT P6SM SCT040
     FM080300 VRB03KT P6SM SCT040 BKN070
     FM081400 23008KT P6SM OVC050=

USA.gov is the U.S. government's official web portal to all federal, state and local government web resources and services.